sensor_id;sensor_type;location;lat;lon;timestamp;pressure;altitude;pressure_sealevel;temperature;humidity
46846;BME280;33947;46.804;134.252;2023-10-08T00:01:11;102173.66;;;7.93;83.60
46846;BME280;33947;46.804;134.252;2023-10-08T00:04:17;102168.72;;;8.30;83.37
46846;BME280;33947;46.804;134.252;2023-10-08T00:07:39;102175.59;;;9.33;79.11
46846;BME280;33947;46.804;134.252;2023-10-08T00:10:46;102152.75;;;9.68;76.79
46846;BME280;33947;46.804;134.252;2023-10-08T00:13:55;102165.22;;;10.06;75.64
46846;BME280;33947;46.804;134.252;2023-10-08T00:17:00;102167.03;;;10.45;74.90
46846;BME280;33947;46.804;134.252;2023-10-08T00:20:05;102173.19;;;10.87;73.79
46846;BME280;33947;46.804;134.252;2023-10-08T00:23:10;102130.53;;;11.24;73.36
46846;BME280;33947;46.804;134.252;2023-10-08T00:26:14;102163.09;;;11.73;72.71
46846;BME280;33947;46.804;134.252;2023-10-08T00:29:25;102159.41;;;12.02;71.84
46846;BME280;33947;46.804;134.252;2023-10-08T00:32:29;102165.53;;;12.18;70.27
46846;BME280;33947;46.804;134.252;2023-10-08T00:35:41;102164.47;;;12.38;70.01
46846;BME280;33947;46.804;134.252;2023-10-08T00:38:47;102156.91;;;12.85;69.04
46846;BME280;33947;46.804;134.252;2023-10-08T00:41:55;102157.03;;;13.55;67.39
46846;BME280;33947;46.804;134.252;2023-10-08T00:45:05;102159.06;;;13.99;65.57
46846;BME280;33947;46.804;134.252;2023-10-08T00:48:14;102151.13;;;14.47;63.56
46846;BME280;33947;46.804;134.252;2023-10-08T00:51:24;102150.38;;;14.91;62.89
46846;BME280;33947;46.804;134.252;2023-10-08T00:54:36;102125.63;;;15.25;62.47
46846;BME280;33947;46.804;134.252;2023-10-08T00:58:13;102149.88;;;15.17;62.98
46846;BME280;33947;46.804;134.252;2023-10-08T01:01:30;102151.19;;;15.81;60.87
46846;BME280;33947;46.804;134.252;2023-10-08T01:04:40;102124.25;;;15.86;60.36
46846;BME280;33947;46.804;134.252;2023-10-08T01:07:50;102142.72;;;16.00;60.03
46846;BME280;33947;46.804;134.252;2023-10-08T01:10:56;102139.91;;;16.06;60.62
46846;BME280;33947;46.804;134.252;2023-10-08T01:14:06;102127.00;;;16.22;59.53
46846;BME280;33947;46.804;134.252;2023-10-08T01:20:54;102008.53;;;16.08;57.87
46846;BME280;33947;46.804;134.252;2023-10-08T01:24:15;102115.81;;;17.07;56.56
46846;BME280;33947;46.804;134.252;2023-10-08T01:27:21;102116.31;;;16.88;57.55
46846;BME280;33947;46.804;134.252;2023-10-08T01:30:28;102118.91;;;17.53;55.40
46846;BME280;33947;46.804;134.252;2023-10-08T01:33:42;102109.41;;;18.00;53.58
46846;BME280;33947;46.804;134.252;2023-10-08T01:36:53;102112.38;;;17.33;54.81
46846;BME280;33947;46.804;134.252;2023-10-08T01:39:58;102112.72;;;17.51;56.02
46846;BME280;33947;46.804;134.252;2023-10-08T01:49:44;102025.16;;;16.84;53.59
46846;BME280;33947;46.804;134.252;2023-10-08T01:52:55;102093.50;;;17.05;55.77
46846;BME280;33947;46.804;134.252;2023-10-08T01:56:03;102089.38;;;16.91;54.62
46846;BME280;33947;46.804;134.252;2023-10-08T01:59:12;102076.97;;;16.56;55.66
46846;BME280;33947;46.804;134.252;2023-10-08T02:02:18;102091.44;;;16.82;54.98
46846;BME280;33947;46.804;134.252;2023-10-08T02:05:22;102084.78;;;16.63;55.30
46846;BME280;33947;46.804;134.252;2023-10-08T02:08:29;102076.78;;;16.62;55.17
46846;BME280;33947;46.804;134.252;2023-10-08T02:11:47;102086.16;;;16.78;54.61
46846;BME280;33947;46.804;134.252;2023-10-08T02:14:55;102041.81;;;16.33;54.80
46846;BME280;33947;46.804;134.252;2023-10-08T02:18:03;102076.88;;;16.59;54.67
46846;BME280;33947;46.804;134.252;2023-10-08T02:21:13;102072.19;;;16.66;54.94
46846;BME280;33947;46.804;134.252;2023-10-08T02:24:24;102071.06;;;16.74;54.57
46846;BME280;33947;46.804;134.252;2023-10-08T02:27:28;102055.41;;;16.59;54.26
46846;BME280;33947;46.804;134.252;2023-10-08T02:30:35;102051.63;;;16.34;53.59
46846;BME280;33947;46.804;134.252;2023-10-08T02:33:40;102059.84;;;16.27;53.77
46846;BME280;33947;46.804;134.252;2023-10-08T02:36:46;102024.56;;;16.09;54.28
46846;BME280;33947;46.804;134.252;2023-10-08T02:39:51;102051.09;;;16.20;54.18
46846;BME280;33947;46.804;134.252;2023-10-08T02:42:59;102014.97;;;16.00;53.75
46846;BME280;33947;46.804;134.252;2023-10-08T02:46:06;102037.72;;;16.18;53.60
46846;BME280;33947;46.804;134.252;2023-10-08T02:49:15;102039.56;;;16.16;53.62
46846;BME280;33947;46.804;134.252;2023-10-08T02:52:29;101989.41;;;15.85;53.75
46846;BME280;33947;46.804;134.252;2023-10-08T02:55:33;102031.06;;;15.99;52.99
46846;BME280;33947;46.804;134.252;2023-10-08T02:58:47;101958.16;;;15.49;53.20
46846;BME280;33947;46.804;134.252;2023-10-08T03:01:51;102007.03;;;15.96;52.67
46846;BME280;33947;46.804;134.252;2023-10-08T03:04:59;102011.16;;;16.09;51.87
46846;BME280;33947;46.804;134.252;2023-10-08T03:08:04;102001.84;;;15.89;52.48
46846;BME280;33947;46.804;134.252;2023-10-08T03:11:17;102011.47;;;15.98;52.43
46846;BME280;33947;46.804;134.252;2023-10-08T03:14:21;101989.41;;;15.85;50.07
46846;BME280;33947;46.804;134.252;2023-10-08T03:17:26;101998.47;;;15.81;51.07
46846;BME280;33947;46.804;134.252;2023-10-08T03:20:34;101944.13;;;15.40;50.83
46846;BME280;33947;46.804;134.252;2023-10-08T03:23:46;101994.84;;;15.82;51.53
46846;BME280;33947;46.804;134.252;2023-10-08T03:27:01;101979.25;;;15.63;51.93
46846;BME280;33947;46.804;134.252;2023-10-08T03:30:32;101992.88;;;15.90;51.66
46846;BME280;33947;46.804;134.252;2023-10-08T03:33:44;101948.75;;;15.69;51.69
46846;BME280;33947;46.804;134.252;2023-10-08T03:36:53;101983.94;;;15.91;50.51
46846;BME280;33947;46.804;134.252;2023-10-08T03:40:03;101983.66;;;16.02;51.88
46846;BME280;33947;46.804;134.252;2023-10-08T03:43:35;101968.41;;;16.04;50.63
46846;BME280;33947;46.804;134.252;2023-10-08T03:46:51;101967.56;;;16.02;51.11
46846;BME280;33947;46.804;134.252;2023-10-08T03:49:56;101934.81;;;15.91;51.49
46846;BME280;33947;46.804;134.252;2023-10-08T03:53:10;101932.97;;;15.93;51.71
46846;BME280;33947;46.804;134.252;2023-10-08T03:56:17;101939.44;;;15.84;52.68
46846;BME280;33947;46.804;134.252;2023-10-08T03:59:23;101916.22;;;15.83;51.08
46846;BME280;33947;46.804;134.252;2023-10-08T04:02:33;101897.38;;;15.86;50.70
46846;BME280;33947;46.804;134.252;2023-10-08T04:05:45;101885.19;;;15.74;50.97
46846;BME280;33947;46.804;134.252;2023-10-08T04:09:18;101920.78;;;16.14;51.15
46846;BME280;33947;46.804;134.252;2023-10-08T04:12:25;101917.00;;;16.22;49.94
46846;BME280;33947;46.804;134.252;2023-10-08T04:15:31;101901.41;;;16.03;49.64
46846;BME280;33947;46.804;134.252;2023-10-08T04:18:35;101882.66;;;16.03;49.86
46846;BME280;33947;46.804;134.252;2023-10-08T04:21:44;101909.16;;;16.14;48.75
46846;BME280;33947;46.804;134.252;2023-10-08T04:24:48;101866.91;;;15.57;49.04
46846;BME280;33947;46.804;134.252;2023-10-08T04:28:00;101899.16;;;16.20;49.15
46846;BME280;33947;46.804;134.252;2023-10-08T04:31:05;101864.53;;;15.80;48.26
46846;BME280;33947;46.804;134.252;2023-10-08T04:34:18;101859.81;;;15.89;49.10
46846;BME280;33947;46.804;134.252;2023-10-08T04:37:25;101887.72;;;16.14;48.35
46846;BME280;33947;46.804;134.252;2023-10-08T04:40:36;101844.00;;;16.12;48.03
46846;BME280;33947;46.804;134.252;2023-10-08T04:43:51;101895.56;;;16.22;47.22
46846;BME280;33947;46.804;134.252;2023-10-08T04:46:59;101872.56;;;16.13;47.95
46846;BME280;33947;46.804;134.252;2023-10-08T04:50:08;101869.25;;;16.03;47.77
46846;BME280;33947;46.804;134.252;2023-10-08T04:53:20;101878.56;;;15.91;48.27
46846;BME280;33947;46.804;134.252;2023-10-08T04:56:36;101849.75;;;15.98;47.23
46846;BME280;33947;46.804;134.252;2023-10-08T04:59:43;101878.13;;;16.05;47.51
46846;BME280;33947;46.804;134.252;2023-10-08T05:02:48;101862.16;;;16.02;39.49
46846;BME280;33947;46.804;134.252;2023-10-08T05:06:00;101828.59;;;15.87;44.42
46846;BME280;33947;46.804;134.252;2023-10-08T05:09:18;101864.72;;;16.37;44.03
46846;BME280;33947;46.804;134.252;2023-10-08T05:12:24;101869.63;;;16.52;44.31
46846;BME280;33947;46.804;134.252;2023-10-08T05:15:35;101856.19;;;16.52;43.63
46846;BME280;33947;46.804;134.252;2023-10-08T05:18:53;101853.75;;;16.44;44.16
46846;BME280;33947;46.804;134.252;2023-10-08T05:22:12;101856.41;;;16.46;42.75
46846;BME280;33947;46.804;134.252;2023-10-08T05:25:22;101852.81;;;16.45;41.16
46846;BME280;33947;46.804;134.252;2023-10-08T05:28:39;101853.50;;;16.54;40.36
46846;BME280;33947;46.804;134.252;2023-10-08T05:32:02;101869.84;;;16.44;39.98
46846;BME280;33947;46.804;134.252;2023-10-08T05:35:46;101859.19;;;16.41;40.31
46846;BME280;33947;46.804;134.252;2023-10-08T05:43:48;101853.28;;;16.60;37.88
46846;BME280;33947;46.804;134.252;2023-10-08T05:46:59;101828.97;;;16.36;38.55
46846;BME280;33947;46.804;134.252;2023-10-08T05:50:17;101840.34;;;16.44;39.46
46846;BME280;33947;46.804;134.252;2023-10-08T05:53:21;101842.28;;;16.39;40.24
46846;BME280;33947;46.804;134.252;2023-10-08T05:56:45;101825.56;;;16.31;40.38
46846;BME280;33947;46.804;134.252;2023-10-08T06:00:09;101838.25;;;16.54;39.73
46846;BME280;33947;46.804;134.252;2023-10-08T06:03:22;101836.81;;;16.42;39.40
46846;BME280;33947;46.804;134.252;2023-10-08T06:06:36;101816.72;;;16.27;40.09
46846;BME280;33947;46.804;134.252;2023-10-08T06:09:45;101805.13;;;16.27;39.82
46846;BME280;33947;46.804;134.252;2023-10-08T06:13:10;101786.75;;;16.14;39.10
46846;BME280;33947;46.804;134.252;2023-10-08T06:16:20;101818.22;;;16.38;38.92
46846;BME280;33947;46.804;134.252;2023-10-08T06:19:35;101810.53;;;16.25;38.85
46846;BME280;33947;46.804;134.252;2023-10-08T06:22:42;101813.16;;;16.27;38.78
46846;BME280;33947;46.804;134.252;2023-10-08T06:25:55;101812.44;;;16.22;38.03
46846;BME280;33947;46.804;134.252;2023-10-08T06:29:18;101791.22;;;16.14;39.25
46846;BME280;33947;46.804;134.252;2023-10-08T06:32:22;101727.53;;;15.60;38.94
46846;BME280;33947;46.804;134.252;2023-10-08T06:35:28;101804.72;;;16.11;39.67
46846;BME280;33947;46.804;134.252;2023-10-08T06:38:35;101804.63;;;16.14;39.53
46846;BME280;33947;46.804;134.252;2023-10-08T06:41:40;101668.56;;;15.32;39.05
46846;BME280;33947;46.804;134.252;2023-10-08T06:44:54;101807.38;;;16.12;39.31
46846;BME280;33947;46.804;134.252;2023-10-08T06:48:06;101794.03;;;16.09;39.43
46846;BME280;33947;46.804;134.252;2023-10-08T06:51:14;101797.59;;;16.10;39.35
46846;BME280;33947;46.804;134.252;2023-10-08T06:54:18;101760.00;;;15.81;39.48
46846;BME280;33947;46.804;134.252;2023-10-08T06:57:23;101725.88;;;15.56;39.85
46846;BME280;33947;46.804;134.252;2023-10-08T07:00:32;101780.25;;;15.91;40.18
46846;BME280;33947;46.804;134.252;2023-10-08T07:03:43;101755.75;;;15.74;40.43
46846;BME280;33947;46.804;134.252;2023-10-08T07:06:47;101776.00;;;15.83;40.08
46846;BME280;33947;46.804;134.252;2023-10-08T07:09:52;101776.09;;;15.80;41.12
46846;BME280;33947;46.804;134.252;2023-10-08T07:13:04;101759.56;;;15.65;41.28
46846;BME280;33947;46.804;134.252;2023-10-08T07:16:11;101774.63;;;15.69;41.32
46846;BME280;33947;46.804;134.252;2023-10-08T07:19:15;101771.81;;;15.74;41.45
46846;BME280;33947;46.804;134.252;2023-10-08T07:22:21;101768.44;;;15.67;41.57
46846;BME280;33947;46.804;134.252;2023-10-08T07:25:33;101768.44;;;15.67;42.25
46846;BME280;33947;46.804;134.252;2023-10-08T07:28:44;101775.56;;;15.67;42.44
46846;BME280;33947;46.804;134.252;2023-10-08T07:31:49;101744.09;;;15.43;42.88
46846;BME280;33947;46.804;134.252;2023-10-08T07:34:57;101764.38;;;15.52;43.13
46846;BME280;33947;46.804;134.252;2023-10-08T07:38:26;101757.84;;;15.29;43.84
46846;BME280;33947;46.804;134.252;2023-10-08T07:41:33;101757.25;;;15.19;44.61
46846;BME280;33947;46.804;134.252;2023-10-08T07:44:39;101763.53;;;15.18;44.65
46846;BME280;33947;46.804;134.252;2023-10-08T07:47:43;101747.00;;;15.02;44.94
46846;BME280;33947;46.804;134.252;2023-10-08T07:50:48;101756.94;;;14.97;45.57
46846;BME280;33947;46.804;134.252;2023-10-08T07:53:54;101761.59;;;14.89;45.83
46846;BME280;33947;46.804;134.252;2023-10-08T07:57:01;101761.91;;;14.76;46.15
46846;BME280;33947;46.804;134.252;2023-10-08T08:00:19;101737.53;;;14.51;46.79
46846;BME280;33947;46.804;134.252;2023-10-08T08:03:27;101766.03;;;14.52;46.84
46846;BME280;33947;46.804;134.252;2023-10-08T08:06:31;101762.75;;;14.41;47.21
46846;BME280;33947;46.804;134.252;2023-10-08T08:09:37;101762.22;;;14.23;47.60
46846;BME280;33947;46.804;134.252;2023-10-08T08:12:41;101770.41;;;14.15;47.81
46846;BME280;33947;46.804;134.252;2023-10-08T08:15:47;101768.03;;;14.01;48.36
46846;BME280;33947;46.804;134.252;2023-10-08T08:18:55;101762.13;;;13.87;48.79
46846;BME280;33947;46.804;134.252;2023-10-08T08:22:01;101763.25;;;13.75;49.07
46846;BME280;33947;46.804;134.252;2023-10-08T08:25:07;101762.75;;;13.56;49.62
46846;BME280;33947;46.804;134.252;2023-10-08T08:28:20;101768.44;;;13.36;50.22
46846;BME280;33947;46.804;134.252;2023-10-08T08:31:24;101750.94;;;13.21;50.47
46846;BME280;33947;46.804;134.252;2023-10-08T08:34:28;101769.53;;;13.25;50.43
46846;BME280;33947;46.804;134.252;2023-10-08T08:37:33;101774.56;;;12.92;51.79
46846;BME280;33947;46.804;134.252;2023-10-08T08:40:39;101758.25;;;12.56;53.08
46846;BME280;33947;46.804;134.252;2023-10-08T08:43:51;101770.25;;;12.25;54.75
46846;BME280;33947;46.804;134.252;2023-10-08T08:50:31;101781.53;;;11.72;57.23
46846;BME280;33947;46.804;134.252;2023-10-08T08:53:36;101759.50;;;11.61;56.84
46846;BME280;33947;46.804;134.252;2023-10-08T08:56:44;101784.84;;;11.95;55.80
46846;BME280;33947;46.804;134.252;2023-10-08T08:59:58;101753.38;;;11.53;57.75
46846;BME280;33947;46.804;134.252;2023-10-08T09:03:04;101781.53;;;11.72;56.26
46846;BME280;33947;46.804;134.252;2023-10-08T09:06:11;101759.28;;;11.78;55.19
46846;BME280;33947;46.804;134.252;2023-10-08T09:09:17;101785.69;;;11.97;54.93
46846;BME280;33947;46.804;134.252;2023-10-08T09:12:27;101777.81;;;11.87;55.45
46846;BME280;33947;46.804;134.252;2023-10-08T09:15:31;101786.00;;;11.70;56.01
46846;BME280;33947;46.804;134.252;2023-10-08T09:18:49;101783.59;;;11.47;58.61
46846;BME280;33947;46.804;134.252;2023-10-08T09:22:09;101790.28;;;10.96;61.29
46846;BME280;33947;46.804;134.252;2023-10-08T09:25:25;101791.38;;;10.72;60.79
46846;BME280;33947;46.804;134.252;2023-10-08T09:28:32;101795.94;;;10.53;61.42
46846;BME280;33947;46.804;134.252;2023-10-08T09:31:37;101786.25;;;10.41;62.04
46846;BME280;33947;46.804;134.252;2023-10-08T09:34:42;101792.44;;;10.43;62.23
46846;BME280;33947;46.804;134.252;2023-10-08T09:37:47;101787.91;;;10.64;60.75
46846;BME280;33947;46.804;134.252;2023-10-08T09:40:52;101791.22;;;10.92;59.58
46846;BME280;33947;46.804;134.252;2023-10-08T09:44:00;101798.47;;;10.70;61.49
46846;BME280;33947;46.804;134.252;2023-10-08T09:47:09;101783.63;;;10.32;62.77
46846;BME280;33947;46.804;134.252;2023-10-08T09:50:22;101759.97;;;9.88;63.99
46846;BME280;33947;46.804;134.252;2023-10-08T09:53:47;101791.75;;;10.01;65.26
46846;BME280;33947;46.804;134.252;2023-10-08T09:56:55;101787.38;;;9.93;64.45
46846;BME280;33947;46.804;134.252;2023-10-08T10:00:01;101760.91;;;9.73;64.14
46846;BME280;33947;46.804;134.252;2023-10-08T10:03:08;101791.88;;;9.74;65.24
46846;BME280;33947;46.804;134.252;2023-10-08T10:06:18;101759.19;;;9.46;66.17
46846;BME280;33947;46.804;134.252;2023-10-08T10:09:24;101786.66;;;9.40;66.75
46846;BME280;33947;46.804;134.252;2023-10-08T10:12:30;101783.13;;;9.30;66.75
46846;BME280;33947;46.804;134.252;2023-10-08T10:15:38;101787.56;;;9.14;67.57
46846;BME280;33947;46.804;134.252;2023-10-08T10:18:49;101788.44;;;9.05;67.60
46846;BME280;33947;46.804;134.252;2023-10-08T10:21:53;101774.31;;;8.77;68.32
46846;BME280;33947;46.804;134.252;2023-10-08T10:25:01;101805.22;;;8.81;68.65
46846;BME280;33947;46.804;134.252;2023-10-08T10:28:21;101796.38;;;8.82;68.55
46846;BME280;33947;46.804;134.252;2023-10-08T10:31:26;101788.44;;;8.99;67.84
46846;BME280;33947;46.804;134.252;2023-10-08T10:34:31;101757.50;;;8.50;68.83
46846;BME280;33947;46.804;134.252;2023-10-08T10:37:38;101796.41;;;8.74;68.79
46846;BME280;33947;46.804;134.252;2023-10-08T10:40:48;101793.66;;;8.48;69.50
46846;BME280;33947;46.804;134.252;2023-10-08T10:44:00;101773.38;;;8.39;69.81
46846;BME280;33947;46.804;134.252;2023-10-08T10:47:12;101799.91;;;8.53;69.81
46846;BME280;33947;46.804;134.252;2023-10-08T10:50:19;101753.00;;;8.10;69.76
46846;BME280;33947;46.804;134.252;2023-10-08T10:53:39;101778.53;;;7.99;70.66
46846;BME280;33947;46.804;134.252;2023-10-08T10:57:10;101754.63;;;7.75;71.01
46846;BME280;33947;46.804;134.252;2023-10-08T11:00:23;101789.06;;;7.89;71.44
46846;BME280;33947;46.804;134.252;2023-10-08T11:03:37;101772.28;;;7.79;71.14
46846;BME280;33947;46.804;134.252;2023-10-08T11:06:46;101796.13;;;7.82;72.14
46846;BME280;33947;46.804;134.252;2023-10-08T11:09:53;101785.44;;;7.70;71.82
46846;BME280;33947;46.804;134.252;2023-10-08T11:12:58;101801.28;;;7.64;73.87
46846;BME280;33947;46.804;134.252;2023-10-08T11:16:06;101739.38;;;7.23;72.52
46846;BME280;33947;46.804;134.252;2023-10-08T11:19:13;101771.22;;;7.45;72.49
46846;BME280;33947;46.804;134.252;2023-10-08T11:22:19;101787.91;;;7.36;73.19
46846;BME280;33947;46.804;134.252;2023-10-08T11:25:26;101780.78;;;7.22;73.68
46846;BME280;33947;46.804;134.252;2023-10-08T11:28:36;101782.53;;;7.22;73.13
46846;BME280;33947;46.804;134.252;2023-10-08T11:31:48;101792.13;;;7.10;73.62
46846;BME280;33947;46.804;134.252;2023-10-08T11:34:57;101789.50;;;7.09;73.64
46846;BME280;33947;46.804;134.252;2023-10-08T11:38:06;101793.91;;;7.15;73.44
46846;BME280;33947;46.804;134.252;2023-10-08T11:41:18;101799.13;;;7.02;73.67
46846;BME280;33947;46.804;134.252;2023-10-08T11:44:25;101798.06;;;6.83;74.99
46846;BME280;33947;46.804;134.252;2023-10-08T11:47:34;101789.22;;;6.78;74.71
46846;BME280;33947;46.804;134.252;2023-10-08T11:50:39;101784.94;;;6.91;73.89
46846;BME280;33947;46.804;134.252;2023-10-08T11:53:44;101785.63;;;6.71;74.56
46846;BME280;33947;46.804;134.252;2023-10-08T11:56:48;101769.69;;;6.60;74.23
46846;BME280;33947;46.804;134.252;2023-10-08T11:59:53;101772.22;;;6.46;74.75
46846;BME280;33947;46.804;134.252;2023-10-08T12:02:58;101779.28;;;6.47;75.45
46846;BME280;33947;46.804;134.252;2023-10-08T12:06:05;101771.38;;;6.52;74.41
46846;BME280;33947;46.804;134.252;2023-10-08T12:09:10;101777.41;;;6.39;75.04
46846;BME280;33947;46.804;134.252;2023-10-08T12:12:16;101764.84;;;6.16;75.79
46846;BME280;33947;46.804;134.252;2023-10-08T12:15:26;101776.16;;;6.05;76.84
46846;BME280;33947;46.804;134.252;2023-10-08T12:18:38;101768.84;;;5.86;78.86
46846;BME280;33947;46.804;134.252;2023-10-08T12:21:50;101775.28;;;6.05;77.91
46846;BME280;33947;46.804;134.252;2023-10-08T12:24:55;101732.91;;;5.91;76.11
46846;BME280;33947;46.804;134.252;2023-10-08T12:28:03;101754.00;;;5.92;76.81
46846;BME280;33947;46.804;134.252;2023-10-08T12:31:08;101741.63;;;5.85;77.62
46846;BME280;33947;46.804;134.252;2023-10-08T12:34:14;101769.16;;;6.07;76.36
46846;BME280;33947;46.804;134.252;2023-10-08T12:37:18;101776.13;;;6.02;76.20
46846;BME280;33947;46.804;134.252;2023-10-08T12:40:23;101773.47;;;6.01;75.83
46846;BME280;33947;46.804;134.252;2023-10-08T12:43:28;101768.75;;;5.76;77.32
46846;BME280;33947;46.804;134.252;2023-10-08T12:46:32;101734.94;;;5.43;77.69
46846;BME280;33947;46.804;134.252;2023-10-08T12:49:39;101775.72;;;5.71;77.76
46846;BME280;33947;46.804;134.252;2023-10-08T12:52:44;101780.69;;;5.48;79.37
46846;BME280;33947;46.804;134.252;2023-10-08T12:55:56;101760.41;;;5.44;78.46
46846;BME280;33947;46.804;134.252;2023-10-08T12:59:02;101764.91;;;5.51;78.02
46846;BME280;33947;46.804;134.252;2023-10-08T13:02:37;101767.25;;;5.31;79.14
46846;BME280;33947;46.804;134.252;2023-10-08T13:05:52;101762.06;;;5.37;79.86
46846;BME280;33947;46.804;134.252;2023-10-08T13:08:57;101771.56;;;5.26;81.01
46846;BME280;33947;46.804;134.252;2023-10-08T13:12:05;101764.59;;;5.28;79.56
46846;BME280;33947;46.804;134.252;2023-10-08T13:15:09;101746.78;;;5.13;79.46
46846;BME280;33947;46.804;134.252;2023-10-08T13:18:14;101761.91;;;5.25;79.21
46846;BME280;33947;46.804;134.252;2023-10-08T13:21:20;101758.53;;;5.35;78.97
46846;BME280;33947;46.804;134.252;2023-10-08T13:24:28;101757.63;;;5.33;78.48
46846;BME280;33947;46.804;134.252;2023-10-08T13:27:33;101744.53;;;5.38;77.76
46846;BME280;33947;46.804;134.252;2023-10-08T13:30:37;101765.56;;;5.34;77.71
46846;BME280;33947;46.804;134.252;2023-10-08T13:33:43;101742.50;;;5.19;77.83
46846;BME280;33947;46.804;134.252;2023-10-08T13:36:47;101769.13;;;4.81;80.47
46846;BME280;33947;46.804;134.252;2023-10-08T13:39:53;101732.28;;;4.81;79.36
46846;BME280;33947;46.804;134.252;2023-10-08T13:42:58;101758.69;;;4.87;78.95
46846;BME280;33947;46.804;134.252;2023-10-08T13:46:04;101763.28;;;4.99;78.84
46846;BME280;33947;46.804;134.252;2023-10-08T13:49:10;101750.03;;;4.93;78.53
46846;BME280;33947;46.804;134.252;2023-10-08T13:52:14;101715.00;;;4.46;79.15
46846;BME280;33947;46.804;134.252;2023-10-08T13:55:18;101745.50;;;4.86;79.20
46846;BME280;33947;46.804;134.252;2023-10-08T13:58:23;101720.63;;;4.67;78.47
46846;BME280;33947;46.804;134.252;2023-10-08T14:01:28;101731.72;;;4.48;79.66
46846;BME280;33947;46.804;134.252;2023-10-08T14:04:35;101620.03;;;3.79;79.99
46846;BME280;33947;46.804;134.252;2023-10-08T14:07:51;101727.66;;;4.17;81.14
46846;BME280;33947;46.804;134.252;2023-10-08T14:11:13;101728.78;;;4.30;81.36
46846;BME280;33947;46.804;134.252;2023-10-08T14:14:17;101733.31;;;4.39;80.77
46846;BME280;33947;46.804;134.252;2023-10-08T14:17:23;101727.09;;;4.35;81.48
46846;BME280;33947;46.804;134.252;2023-10-08T14:20:46;101744.41;;;4.22;82.18
46846;BME280;33947;46.804;134.252;2023-10-08T14:23:51;101747.44;;;4.44;82.03
46846;BME280;33947;46.804;134.252;2023-10-08T14:27:00;101749.13;;;4.40;81.23
46846;BME280;33947;46.804;134.252;2023-10-08T14:30:13;101744.91;;;4.50;81.19
46846;BME280;33947;46.804;134.252;2023-10-08T14:33:24;101739.06;;;4.17;82.53
46846;BME280;33947;46.804;134.252;2023-10-08T14:36:35;101669.97;;;3.79;83.98
46846;BME280;33947;46.804;134.252;2023-10-08T14:39:58;101744.69;;;4.38;82.15
46846;BME280;33947;46.804;134.252;2023-10-08T14:43:23;101734.94;;;4.32;82.52
46846;BME280;33947;46.804;134.252;2023-10-08T14:46:30;101732.53;;;4.44;81.46
46846;BME280;33947;46.804;134.252;2023-10-08T14:49:37;101738.66;;;4.43;81.75
46846;BME280;33947;46.804;134.252;2023-10-08T14:52:45;101735.91;;;4.37;82.46
46846;BME280;33947;46.804;134.252;2023-10-08T14:55:50;101723.31;;;4.19;84.34
46846;BME280;33947;46.804;134.252;2023-10-08T14:58:55;101733.13;;;4.29;83.60
46846;BME280;33947;46.804;134.252;2023-10-08T15:02:00;101704.63;;;4.05;84.76
46846;BME280;33947;46.804;134.252;2023-10-08T15:05:07;101706.19;;;3.95;85.90
46846;BME280;33947;46.804;134.252;2023-10-08T15:08:12;101728.13;;;3.97;87.07
46846;BME280;33947;46.804;134.252;2023-10-08T15:11:18;101729.38;;;4.16;85.66
46846;BME280;33947;46.804;134.252;2023-10-08T15:14:22;101736.34;;;4.13;85.38
46846;BME280;33947;46.804;134.252;2023-10-08T15:17:28;101728.72;;;4.28;85.00
46846;BME280;33947;46.804;134.252;2023-10-08T15:20:33;101705.00;;;4.24;84.17
46846;BME280;33947;46.804;134.252;2023-10-08T15:23:37;101738.44;;;4.32;84.31
46846;BME280;33947;46.804;134.252;2023-10-08T15:26:41;101725.88;;;4.16;85.64
46846;BME280;33947;46.804;134.252;2023-10-08T15:29:46;101725.78;;;4.10;86.17
46846;BME280;33947;46.804;134.252;2023-10-08T15:32:50;101727.47;;;4.08;86.35
46846;BME280;33947;46.804;134.252;2023-10-08T15:35:55;101741.59;;;4.13;87.14
46846;BME280;33947;46.804;134.252;2023-10-08T15:39:00;101732.81;;;4.11;85.80
46846;BME280;33947;46.804;134.252;2023-10-08T15:42:05;101716.00;;;4.04;85.72
46846;BME280;33947;46.804;134.252;2023-10-08T15:45:09;101589.00;;;3.14;85.37
46846;BME280;33947;46.804;134.252;2023-10-08T15:48:16;101712.50;;;4.03;86.06
46846;BME280;33947;46.804;134.252;2023-10-08T15:51:20;101727.88;;;4.29;85.17
46846;BME280;33947;46.804;134.252;2023-10-08T15:54:28;101728.47;;;4.13;85.04
46846;BME280;33947;46.804;134.252;2023-10-08T15:57:32;101722.06;;;3.98;85.48
46846;BME280;33947;46.804;134.252;2023-10-08T16:00:36;101739.31;;;4.31;84.28
46846;BME280;33947;46.804;134.252;2023-10-08T16:03:41;101723.16;;;4.11;84.78
46846;BME280;33947;46.804;134.252;2023-10-08T16:06:46;101735.22;;;4.00;85.43
46846;BME280;33947;46.804;134.252;2023-10-08T16:09:51;101739.59;;;3.99;86.70
46846;BME280;33947;46.804;134.252;2023-10-08T16:12:57;101705.66;;;3.67;86.60
46846;BME280;33947;46.804;134.252;2023-10-08T16:16:01;101739.41;;;3.90;86.79
46846;BME280;33947;46.804;134.252;2023-10-08T16:19:06;101747.44;;;3.98;86.86
46846;BME280;33947;46.804;134.252;2023-10-08T16:22:17;101735.78;;;3.85;87.96
46846;BME280;33947;46.804;134.252;2023-10-08T16:25:21;101740.47;;;3.98;87.34
46846;BME280;33947;46.804;134.252;2023-10-08T16:28:25;101734.47;;;4.05;86.38